createdAt,value
2018-01-15T00:01:35.556Z,0.50
2018-01-15T00:06:19.661Z,0.50
2018-01-15T00:11:02.961Z,0.50
2018-01-15T00:15:46.256Z,0.40
2018-01-15T00:20:29.581Z,0.40
2018-01-15T00:25:12.900Z,0.50
2018-01-15T00:29:56.201Z,0.50
2018-01-15T00:34:39.513Z,0.40
2018-01-15T00:39:22.821Z,0.30
2018-01-15T00:44:06.147Z,0.30
2018-01-15T00:48:49.746Z,0.30
2018-01-15T00:53:33.036Z,0.30
2018-01-15T00:58:16.355Z,0.40
2018-01-15T01:02:59.686Z,0.30
2018-01-15T01:07:43.794Z,0.30
2018-01-15T01:12:27.144Z,0.30
2018-01-15T01:17:10.477Z,0.30
2018-01-15T01:21:53.784Z,0.20
2018-01-15T01:26:37.120Z,0.20
2018-01-15T01:31:20.417Z,0.10
2018-01-15T01:36:03.737Z,0.30
2018-01-15T01:40:47.038Z,0.20
2018-01-15T01:45:30.620Z,0.30
2018-01-15T01:50:13.906Z,0.30
2018-01-15T01:54:57.980Z,0.30
2018-01-15T01:59:41.286Z,0.30
2018-01-15T02:04:24.615Z,0.30
2018-01-15T02:09:07.903Z,0.30
2018-01-15T02:13:51.477Z,0.30
2018-01-15T02:18:34.829Z,0.30
2018-01-15T02:23:18.130Z,0.20
2018-01-15T02:28:01.439Z,0.30
2018-01-15T02:32:44.731Z,0.30
2018-01-15T02:37:28.035Z,0.20
2018-01-15T02:42:12.382Z,0.30
2018-01-15T02:46:56.418Z,0.20
2018-01-15T02:51:39.726Z,0.20
2018-01-15T02:56:23.052Z,0.20
2018-01-15T03:01:06.399Z,0.30
2018-01-15T03:05:49.718Z,0.20
2018-01-15T03:10:34.053Z,0.20
2018-01-15T03:15:17.353Z,0.20
2018-01-15T03:20:00.694Z,0.20
2018-01-15T03:24:44.054Z,0.20
2018-01-15T03:29:27.370Z,0.10
2018-01-15T03:34:10.694Z,0.10
2018-01-15T03:38:54.008Z,0.10
2018-01-15T03:43:38.387Z,0.10
2018-01-15T03:48:21.685Z,0.10
2018-01-15T03:53:05.172Z,0.10
2018-01-15T03:57:49.288Z,0.00
2018-01-15T04:02:32.616Z,-0.10
2018-01-15T04:07:16.188Z,-0.20
2018-01-15T04:12:00.254Z,-0.50
2018-01-15T04:16:43.585Z,-0.50
2018-01-15T04:21:26.921Z,-0.60
2018-01-15T04:26:10.258Z,-0.80
2018-01-15T04:30:53.602Z,-0.80
2018-01-15T04:35:36.928Z,-0.90
2018-01-15T04:40:20.514Z,-1.00
2018-01-15T04:45:03.785Z,-1.10
2018-01-15T04:49:47.110Z,-1.10
2018-01-15T04:54:30.542Z,-1.20
2018-01-15T04:59:13.860Z,-1.20
2018-01-15T05:03:57.965Z,-1.30
2018-01-15T05:08:41.564Z,-1.30
2018-01-15T05:13:25.657Z,-1.40
2018-01-15T05:18:09.012Z,-1.40
2018-01-15T05:22:52.326Z,-1.40
2018-01-15T05:27:35.657Z,-1.60
2018-01-15T05:32:19.019Z,-1.50
2018-01-15T05:37:02.588Z,-1.50
2018-01-15T05:41:45.904Z,-1.60
2018-01-15T05:46:29.221Z,-1.80
2018-01-15T05:51:13.301Z,-1.70
2018-01-15T05:55:58.186Z,-1.70
2018-01-15T06:00:41.551Z,-1.70
2018-01-15T06:05:25.121Z,-1.70
2018-01-15T06:10:08.419Z,-1.70
2018-01-15T06:14:51.753Z,-1.70
2018-01-15T06:19:35.090Z,-1.60
2018-01-15T06:24:18.418Z,-1.60
2018-01-15T06:29:01.738Z,-1.60
2018-01-15T06:33:45.806Z,-1.50
2018-01-15T06:38:29.150Z,-1.50
2018-01-15T06:43:12.518Z,-1.50
2018-01-15T06:47:55.845Z,-1.50
2018-01-15T06:52:39.179Z,-1.50
2018-01-15T06:57:22.539Z,-1.50
2018-01-15T07:02:05.900Z,-1.50
2018-01-15T07:06:49.228Z,-1.40
2018-01-15T07:11:32.575Z,-1.50
2018-01-15T07:16:15.891Z,-1.60
2018-01-15T07:20:59.218Z,-1.50
2018-01-15T07:25:42.528Z,-1.50
2018-01-15T07:30:25.883Z,-1.50
2018-01-15T07:35:10.004Z,-1.60
2018-01-15T07:39:53.377Z,-1.60
2018-01-15T07:44:37.464Z,-1.50
2018-01-15T07:49:20.785Z,-1.50
2018-01-15T07:54:04.088Z,-1.60
2018-01-15T07:58:48.209Z,-1.30
2018-01-15T08:03:31.517Z,-1.30
2018-01-15T08:08:14.862Z,-1.30
2018-01-15T08:12:58.189Z,-1.10
2018-01-15T08:17:42.307Z,-1.00
2018-01-15T08:22:25.646Z,-1.00
2018-01-15T08:27:08.976Z,-0.80
2018-01-15T08:31:52.502Z,-0.80
2018-01-15T08:36:36.551Z,-0.60
2018-01-15T08:41:19.891Z,-0.50
2018-01-15T08:46:03.192Z,-0.30
2018-01-15T08:50:46.514Z,-0.20
2018-01-15T08:55:29.882Z,0.10
2018-01-15T09:00:13.933Z,0.20
2018-01-15T09:04:57.254Z,0.20
2018-01-15T09:09:40.567Z,0.40
2018-01-15T09:14:23.899Z,0.60
2018-01-15T09:19:07.235Z,0.60
2018-01-15T09:23:50.832Z,0.70
2018-01-15T09:28:34.155Z,0.90
2018-01-15T09:33:17.470Z,1.10
2018-01-15T09:38:00.783Z,1.30
2018-01-15T09:42:44.100Z,1.50
2018-01-15T09:47:27.394Z,1.60
2018-01-15T09:52:10.714Z,1.70
2018-01-15T09:56:54.024Z,1.40
2018-01-15T10:01:37.378Z,1.30
2018-01-15T10:06:21.488Z,1.20
2018-01-15T10:11:04.821Z,1.20
2018-01-15T10:15:48.179Z,1.20
2018-01-15T10:20:31.437Z,1.30
2018-01-15T10:25:15.522Z,1.20
2018-01-15T10:29:59.583Z,1.30
2018-01-15T10:34:42.919Z,1.30
2018-01-15T10:39:26.538Z,1.30
2018-01-15T10:44:09.828Z,1.30
2018-01-15T10:48:53.146Z,1.10
2018-01-15T10:53:38.093Z,1.30
2018-01-15T10:58:21.426Z,1.30
2018-01-15T11:03:04.732Z,1.30
2018-01-15T11:07:48.096Z,1.40
2018-01-15T11:12:31.406Z,1.30
2018-01-15T11:17:14.719Z,1.40
2018-01-15T11:21:58.146Z,1.30
2018-01-15T11:26:41.492Z,1.40
2018-01-15T11:31:25.571Z,1.30
2018-01-15T11:36:08.936Z,1.30
2018-01-15T11:40:52.229Z,1.20
2018-01-15T11:45:36.314Z,1.30
2018-01-15T11:50:19.643Z,1.30
2018-01-15T11:55:02.946Z,1.40
2018-01-15T11:59:46.237Z,1.40
2018-01-15T12:04:29.579Z,1.50
2018-01-15T12:09:12.883Z,1.50
2018-01-15T12:13:56.958Z,1.70
2018-01-15T12:18:40.291Z,1.60
2018-01-15T12:23:23.560Z,1.80
2018-01-15T12:28:06.900Z,1.90
2018-01-15T12:32:50.210Z,1.90
2018-01-15T12:37:33.507Z,2.10
2018-01-15T12:42:16.822Z,2.20
2018-01-15T12:47:01.230Z,2.20
2018-01-15T12:51:44.575Z,2.10
2018-01-15T12:56:27.926Z,2.10
2018-01-15T13:01:11.249Z,2.00
2018-01-15T13:06:09.439Z,2.10
2018-01-15T13:10:53.033Z,2.30
2018-01-15T13:15:36.342Z,2.50
2018-01-15T13:20:19.677Z,2.60
2018-01-15T13:25:03.066Z,2.60
2018-01-15T13:29:46.372Z,2.50
2018-01-15T13:34:29.746Z,2.40
2018-01-15T13:39:13.030Z,2.20
2018-01-15T13:43:57.110Z,1.90
2018-01-15T13:48:40.433Z,1.90
2018-01-15T13:53:24.562Z,1.70
2018-01-15T13:58:08.657Z,1.70
2018-01-15T14:02:52.004Z,1.70
2018-01-15T14:07:35.366Z,1.50
2018-01-15T14:12:18.736Z,1.50
2018-01-15T14:17:02.064Z,1.40
2018-01-15T14:21:45.438Z,1.30
2018-01-15T14:26:29.418Z,1.20
2018-01-15T14:31:12.764Z,1.30
2018-01-15T14:35:56.074Z,1.40
2018-01-15T14:40:40.177Z,1.30
2018-01-15T14:45:23.520Z,1.30
2018-01-15T14:50:06.833Z,1.40
2018-01-15T14:54:50.917Z,1.50
2018-01-15T14:59:34.248Z,1.50
2018-01-15T15:04:18.149Z,1.50
2018-01-15T15:09:01.462Z,1.40
2018-01-15T15:13:44.807Z,1.40
2018-01-15T15:18:28.191Z,1.20
2018-01-15T15:23:11.486Z,0.80
2018-01-15T15:27:54.798Z,0.70
2018-01-15T15:32:38.142Z,0.30
2018-01-15T15:37:21.477Z,0.20
2018-01-15T15:42:04.805Z,0.10
2018-01-15T15:46:48.902Z,-0.20
2018-01-15T15:51:32.233Z,-0.20
2018-01-15T15:56:15.572Z,-0.30
2018-01-15T16:00:58.931Z,-0.30
2018-01-15T16:05:42.264Z,-0.30
2018-01-15T16:10:25.628Z,-0.30
2018-01-15T16:15:09.246Z,-0.30
2018-01-15T16:19:52.524Z,-0.60
2018-01-15T16:24:35.906Z,-0.60
2018-01-15T16:29:19.269Z,-0.70
2018-01-15T16:34:02.595Z,-0.80
2018-01-15T16:38:45.972Z,-0.80
2018-01-15T16:43:29.308Z,-0.80
2018-01-15T16:48:12.928Z,-0.60
2018-01-15T16:52:56.214Z,-0.50
2018-01-15T16:57:39.597Z,-0.50
2018-01-15T17:02:22.931Z,-0.50
2018-01-15T17:07:06.285Z,-0.70
2018-01-15T17:11:49.638Z,-0.70
2018-01-15T17:16:32.962Z,-0.70
2018-01-15T17:21:16.312Z,-0.70
2018-01-15T17:25:59.627Z,-0.70
2018-01-15T17:30:42.966Z,-0.70
2018-01-15T17:35:26.289Z,-0.40
2018-01-15T17:40:10.408Z,-0.40
2018-01-15T17:44:53.721Z,-0.40
2018-01-15T17:49:37.090Z,-0.40
2018-01-15T17:54:20.427Z,-0.20
2018-01-15T17:59:03.732Z,0.00
2018-01-15T18:03:47.087Z,0.00
2018-01-15T18:08:30.399Z,0.10
2018-01-15T18:13:14.474Z,0.20
2018-01-15T18:17:57.806Z,0.10
2018-01-15T18:22:41.163Z,0.10
2018-01-15T18:27:24.504Z,0.10
2018-01-15T18:32:07.837Z,0.10
2018-01-15T18:36:51.135Z,-0.10
2018-01-15T18:41:34.484Z,0.00
2018-01-15T18:46:18.255Z,-0.10
2018-01-15T18:51:01.674Z,-0.10
2018-01-15T18:55:45.014Z,0.00
2018-01-15T19:00:28.351Z,0.10
2018-01-15T19:05:11.629Z,0.20
2018-01-15T19:09:54.978Z,0.10
2018-01-15T19:14:38.343Z,0.20
2018-01-15T19:19:21.715Z,0.20
2018-01-15T19:24:05.097Z,0.20
2018-01-15T19:28:48.407Z,0.20
2018-01-15T19:33:32.490Z,0.00
2018-01-15T19:38:26.631Z,0.00
2018-01-15T19:43:15.518Z,0.10
2018-01-15T19:48:04.542Z,0.10
2018-01-15T19:52:53.417Z,0.00
2018-01-15T20:03:08.942Z,-0.20
2018-01-15T20:08:11.997Z,-0.20
2018-01-15T20:18:06.770Z,-0.30
2018-01-15T20:22:50.828Z,-0.50
2018-01-15T20:27:36.427Z,-0.60
2018-01-15T20:32:20.566Z,-0.60
2018-01-15T20:37:03.907Z,-0.60
2018-01-15T20:41:47.249Z,-0.60
2018-01-15T20:46:30.567Z,-0.50
2018-01-15T20:51:14.690Z,-0.50
2018-01-15T20:55:58.007Z,-0.60
2018-01-15T21:00:41.367Z,-0.60
2018-01-15T21:05:24.708Z,-0.60
2018-01-15T21:10:08.080Z,-0.60
2018-01-15T21:14:51.402Z,-0.60
2018-01-15T21:19:34.775Z,-0.60
2018-01-15T21:24:18.850Z,-0.60
2018-01-15T21:29:02.182Z,-0.70
2018-01-15T21:33:45.567Z,-0.60
2018-01-15T21:38:28.946Z,-0.60
2018-01-15T21:43:13.083Z,-0.60
2018-01-15T21:47:57.213Z,-0.70
2018-01-15T21:52:40.563Z,-0.70
2018-01-15T21:57:23.856Z,-0.80
2018-01-15T22:02:07.183Z,-0.60
2018-01-15T22:06:51.272Z,-0.60
2018-01-15T22:11:34.638Z,-0.60
2018-01-15T22:16:17.950Z,-0.60
2018-01-15T22:21:01.271Z,-0.60
2018-01-15T22:25:44.627Z,-0.60
2018-01-15T22:30:27.936Z,-0.50
2018-01-15T22:35:11.296Z,-0.50
2018-01-15T22:39:54.631Z,-0.50
2018-01-15T22:44:37.959Z,-0.40
2018-01-15T22:49:22.349Z,-0.20
2018-01-15T22:54:05.674Z,-0.30
2018-01-15T22:58:48.997Z,-0.10
2018-01-15T23:03:34.273Z,-0.10
2018-01-15T23:08:17.606Z,-0.10
2018-01-15T23:13:01.736Z,-0.10
2018-01-15T23:17:45.095Z,-0.10
2018-01-15T23:22:28.526Z,0.00
2018-01-15T23:27:11.965Z,-0.10
2018-01-15T23:31:55.376Z,-0.10
2018-01-15T23:36:38.895Z,-0.10
2018-01-15T23:41:22.294Z,-0.20
2018-01-15T23:46:06.977Z,-0.30
2018-01-15T23:50:50.370Z,-0.20
2018-01-15T23:55:33.729Z,-0.30
